Time;durP1;ratioP1;P1;durP2;ratioP2;P2;SDS_P1;SDS_P2;PMS_P1;PMS_P2;Temp;Humidity;BMP_temperature;BMP_pressure;BME280_temperature;BME280_humidity;BME280_pressure;Samples;Min_cycle;Max_cycle;Signal;HPM_P1;HPM_P2
2021/10/09 00:01:46;;;;;;;;;16.60;14.00;;;;;10.20;44.36;100299.69;6137294;28;99154;-66
2021/10/09 00:04:50;;;;;;;;;18.00;14.00;;;;;10.24;44.01;100294.75;6155386;28;96694;-66
2021/10/09 00:07:54;;;;;;;;;17.00;16.00;;;;;10.29;43.94;100305.84;6144889;28;97284;-68
2021/10/09 00:10:58;;;;;;;;;19.50;17.50;;;;;10.25;44.07;100299.16;6161867;28;96727;-65
2021/10/09 00:14:01;;;;;;;;;19.00;16.40;;;;;10.19;44.26;100292.63;6145626;28;98421;-65
2021/10/09 00:17:05;;;;;;;;;19.00;17.00;;;;;10.15;44.35;100280.53;6159620;28;96938;-68
2021/10/09 00:20:09;;;;;;;;;18.00;16.00;;;;;10.22;44.16;100291.41;6151823;28;97118;-66
2021/10/09 00:23:14;;;;;;;;;18.40;15.80;;;;;10.20;44.43;100286.22;6167467;28;97645;-65
2021/10/09 00:26:17;;;;;;;;;19.40;16.40;;;;;10.22;44.34;100284.16;6155442;28;97557;-65
2021/10/09 00:29:21;;;;;;;;;18.80;18.00;;;;;10.23;44.37;100287.69;6138172;28;97059;-66
2021/10/09 00:32:25;;;;;;;;;21.00;19.00;;;;;10.15;44.62;100294.00;6148320;28;97673;-67
2021/10/09 00:35:28;;;;;;;;;18.00;17.00;;;;;10.12;44.76;100280.03;6161767;28;97515;-67
2021/10/09 00:38:33;;;;;;;;;17.00;16.00;;;;;9.98;45.12;100285.22;6166051;28;97629;-68
2021/10/09 00:41:36;;;;;;;;;16.40;16.00;;;;;10.04;44.81;100280.97;6166347;28;97517;-68
2021/10/09 00:44:40;;;;;;;;;19.00;17.20;;;;;10.02;44.90;100282.19;6163025;28;96764;-68
2021/10/09 00:47:43;;;;;;;;;17.00;17.00;;;;;9.88;45.19;100284.66;6137441;28;96855;-68
2021/10/09 00:50:47;;;;;;;;;21.75;18.00;;;;;9.86;45.15;100286.72;6145541;28;96678;-67
2021/10/09 00:53:51;;;;;;;;;17.60;16.00;;;;;9.84;45.11;100285.19;6151833;28;97542;-68
2021/10/09 00:56:58;;;;;;;;;20.00;18.25;;;;;9.83;45.47;100283.53;6147957;28;96774;-67
2021/10/09 01:00:04;;;;;;;;;18.75;16.00;;;;;9.83;45.36;100280.81;6165696;28;97834;-67
2021/10/09 01:03:08;;;;;;;;;20.00;20.00;;;;;9.85;45.27;100273.41;6135743;28;97467;-68
2021/10/09 01:06:12;;;;;;;;;16.20;16.20;;;;;9.82;45.30;100273.78;6164616;28;96494;-67
2021/10/09 01:09:16;;;;;;;;;17.00;16.40;;;;;9.77;45.37;100278.88;6147048;28;97564;-66
2021/10/09 01:12:20;;;;;;;;;19.75;17.75;;;;;9.67;45.79;100284.53;6157988;28;97061;-68
2021/10/09 01:15:29;;;;;;;;;20.80;18.40;;;;;9.65;45.95;100283.88;6158764;28;97368;-67
2021/10/09 01:18:33;;;;;;;;;20.40;19.00;;;;;9.57;46.23;100267.78;6161298;28;97534;-66
2021/10/09 01:21:44;;;;;;;;;19.40;17.40;;;;;9.57;46.17;100274.03;6145808;28;97450;-65
2021/10/09 01:24:48;;;;;;;;;18.40;17.00;;;;;9.40;46.73;100272.47;6145072;28;96632;-65
2021/10/09 01:27:51;;;;;;;;;21.00;18.20;;;;;9.40;46.77;100268.94;6132871;28;97076;-65
2021/10/09 01:30:55;;;;;;;;;17.50;15.50;;;;;9.35;46.75;100274.84;6142348;28;97470;-67
2021/10/09 01:34:00;;;;;;;;;17.00;16.00;;;;;9.29;46.75;100262.09;6154917;28;96586;-67
2021/10/09 01:37:05;;;;;;;;;18.00;16.00;;;;;9.29;47.04;100269.34;6121241;28;97297;-66
2021/10/09 01:40:14;;;;;;;;;20.00;18.00;;;;;9.23;46.96;100262.00;6145416;28;97515;-68
2021/10/09 01:43:23;;;;;;;;;22.40;20.00;;;;;8.78;47.45;100206.34;6161680;28;97183;-65
2021/10/09 01:46:26;;;;;;;;;19.00;17.00;;;;;9.13;47.05;100265.78;6166045;28;97590;-66
2021/10/09 01:49:32;;;;;;;;;17.80;16.40;;;;;9.14;47.02;100253.97;6145733;28;96657;-67
2021/10/09 01:52:43;;;;;;;;;18.75;17.00;;;;;9.06;47.72;100259.44;6142885;28;96692;-67
2021/10/09 01:55:48;;;;;;;;;17.50;15.50;;;;;9.03;47.59;100257.09;6130672;28;97725;-66
2021/10/09 01:58:54;;;;;;;;;19.00;17.00;;;;;9.03;47.42;100261.66;6145966;28;96596;-67
2021/10/09 02:02:06;;;;;;;;;20.00;18.00;;;;;9.13;47.06;100254.19;6127709;28;98071;-68
2021/10/09 02:05:11;;;;;;;;;18.00;16.60;;;;;9.10;47.59;100260.75;6122712;28;97733;-65
2021/10/09 02:08:16;;;;;;;;;19.00;17.00;;;;;9.18;47.29;100259.84;6147080;28;97870;-66
2021/10/09 02:11:21;;;;;;;;;18.00;18.00;;;;;9.18;47.30;100256.31;6143158;28;96979;-67
2021/10/09 02:14:29;;;;;;;;;20.00;18.60;;;;;9.04;47.53;100250.69;6143913;28;96704;-66
2021/10/09 02:24:26;;;;;;;;;22.60;20.00;;;;;9.13;47.41;100257.72;6149629;28;97512;-66
2021/10/09 02:27:29;;;;;;;;;21.00;19.00;;;;;9.15;47.40;100252.13;6155478;28;96410;-67
2021/10/09 02:30:33;;;;;;;;;19.00;17.00;;;;;9.01;47.79;100260.97;6130374;28;97928;-65
2021/10/09 02:33:37;;;;;;;;;19.60;19.60;;;;;9.02;47.47;100260.81;6144877;28;97572;-65
2021/10/09 02:36:40;;;;;;;;;19.00;17.40;;;;;9.03;47.65;100261.66;6145511;28;97396;-66
2021/10/09 02:39:47;;;;;;;;;21.00;18.20;;;;;9.03;47.50;100262.47;6161850;28;96831;-66
2021/10/09 02:42:52;;;;;;;;;22.60;19.00;;;;;9.02;47.42;100260.81;6137432;28;97275;-65
2021/10/09 02:45:55;;;;;;;;;19.60;17.60;;;;;8.94;47.49;100251.97;6163821;28;97337;-67
2021/10/09 02:49:04;;;;;;;;;21.20;18.80;;;;;8.94;47.78;100263.53;6145634;28;97467;-66
2021/10/09 02:52:08;;;;;;;;;20.00;19.00;;;;;8.81;48.04;100263.28;6133732;28;96990;-66
2021/10/09 02:55:17;;;;;;;;;21.20;20.00;;;;;8.78;48.08;100262.81;6150399;28;96620;-66
2021/10/09 02:58:20;;;;;;;;;16.00;15.20;;;;;8.61;48.76;100257.50;6146847;28;98612;-67
2021/10/09 03:01:24;;;;;;;;;18.60;17.00;;;;;8.66;48.54;100257.81;6142180;28;97716;-65
2021/10/09 03:04:28;;;;;;;;;18.20;17.80;;;;;8.70;48.46;100264.50;6163656;28;98098;-65
2021/10/09 03:07:32;;;;;;;;;18.40;18.00;;;;;8.71;48.42;100259.97;6145281;28;96475;-65
2021/10/09 03:10:37;;;;;;;;;21.40;18.00;;;;;8.74;48.31;100266.88;6123259;28;97136;-65
2021/10/09 03:13:40;;;;;;;;;17.60;16.60;;;;;8.77;48.21;100274.56;6157729;28;96787;-68
2021/10/09 03:16:45;;;;;;;;;19.00;17.00;;;;;8.81;48.23;100265.97;6161813;28;97457;-66
2021/10/09 03:19:49;;;;;;;;;21.00;18.00;;;;;8.66;48.08;100252.44;6143872;28;97755;-64
2021/10/09 03:22:53;;;;;;;;;18.75;16.00;;;;;8.71;48.55;100276.09;6142325;28;96534;-66
2021/10/09 03:25:57;;;;;;;;;18.00;15.33;;;;;8.70;48.51;100285.19;6160548;28;97266;-66
2021/10/09 03:29:01;;;;;;;;;18.40;18.00;;;;;8.74;48.43;100277.63;6158404;28;96438;-67
2021/10/09 03:32:06;;;;;;;;;20.00;18.00;;;;;8.79;48.15;100275.25;6134309;28;96683;-66
2021/10/09 03:35:10;;;;;;;;;22.40;18.60;;;;;8.77;48.52;100285.31;6142856;28;98263;-65
2021/10/09 03:38:15;;;;;;;;;18.00;17.00;;;;;8.86;48.44;100278.88;6137417;28;97155;-66
2021/10/09 03:41:20;;;;;;;;;19.00;18.00;;;;;8.65;48.16;100256.13;6144869;28;97514;-67
2021/10/09 03:44:23;;;;;;;;;21.00;19.00;;;;;8.86;48.09;100278.88;6155306;28;96894;-66
2021/10/09 03:47:33;;;;;;;;;18.50;17.00;;;;;8.79;48.23;100281.47;6145885;28;98094;-66
2021/10/09 03:53:59;;;;;;;;;21.00;19.00;;;;;8.79;48.11;100280.63;6129271;28;99521;-64
2021/10/09 03:57:04;;;;;;;;;19.40;18.40;;;;;8.83;48.32;100287.31;6144283;28;96726;-67
2021/10/09 04:00:11;;;;;;;;;19.00;17.60;;;;;8.72;48.14;100268.88;6128546;28;99721;-64
2021/10/09 04:03:17;;;;;;;;;19.00;18.00;;;;;8.84;48.40;100289.00;6156034;28;96652;-68
2021/10/09 04:06:21;;;;;;;;;19.00;17.00;;;;;8.73;48.62;100289.38;6142563;28;98053;-65
2021/10/09 04:09:24;;;;;;;;;20.00;18.20;;;;;8.77;48.41;100293.38;6143189;28;97537;-68
2021/10/09 04:12:32;;;;;;;;;20.20;19.00;;;;;8.90;48.03;100296.34;6127002;28;97213;-65
2021/10/09 04:15:36;;;;;;;;;21.60;19.00;;;;;8.89;48.12;100297.38;6147507;28;97529;-67
2021/10/09 04:18:42;;;;;;;;;23.25;22.25;;;;;8.82;48.32;100299.91;6132628;28;96687;-67
2021/10/09 04:21:47;;;;;;;;;19.00;17.60;;;;;8.90;48.11;100302.56;6156854;28;96502;-65
2021/10/09 04:24:52;;;;;;;;;21.40;20.00;;;;;9.00;48.16;100305.88;6144131;28;97544;-65
2021/10/09 04:27:57;;;;;;;;;22.40;19.60;;;;;9.02;47.87;100303.00;6148168;28;97396;-65
2021/10/09 04:31:01;;;;;;;;;20.00;19.00;;;;;9.02;47.92;100305.69;6157809;28;97705;-68
2021/10/09 04:34:04;;;;;;;;;22.00;19.00;;;;;9.01;47.83;100304.84;6144172;28;97037;-66
2021/10/09 04:37:08;;;;;;;;;23.00;20.60;;;;;8.95;48.03;100308.25;6160771;28;97031;-66
2021/10/09 04:40:13;;;;;;;;;23.00;20.00;;;;;8.89;48.09;100311.66;6149099;28;97697;-68
2021/10/09 04:43:19;;;;;;;;;21.60;20.00;;;;;8.65;48.46;100271.41;6154200;28;98081;-65
2021/10/09 04:46:23;;;;;;;;;20.60;18.00;;;;;8.91;48.10;100317.69;6163917;28;96590;-65
2021/10/09 04:49:27;;;;;;;;;23.00;20.00;;;;;8.97;48.14;100314.31;6164116;28;96795;-68
2021/10/09 04:52:33;;;;;;;;;21.20;19.20;;;;;8.94;48.38;100314.63;6159897;28;98089;-68
2021/10/09 04:55:37;;;;;;;;;20.60;19.60;;;;;8.90;48.38;100320.53;6149545;28;97365;-67
2021/10/09 04:58:42;;;;;;;;;22.00;21.00;;;;;8.85;48.29;100321.06;6147000;28;96714;-65
2021/10/09 05:01:46;;;;;;;;;20.60;19.60;;;;;8.89;48.50;100332.34;6146403;28;97517;-65
2021/10/09 05:04:51;;;;;;;;;23.40;21.00;;;;;8.92;48.46;100334.66;6162322;28;97507;-65
2021/10/09 05:07:55;;;;;;;;;20.00;18.00;;;;;8.91;48.44;100333.81;6128401;28;96930;-65
2021/10/09 05:10:58;;;;;;;;;22.00;20.00;;;;;8.99;48.29;100333.78;6146913;28;96791;-66
2021/10/09 05:14:03;;;;;;;;;20.00;19.00;;;;;9.07;48.26;100331.06;6162721;28;97453;-65
2021/10/09 05:17:08;;;;;;;;;22.20;19.20;;;;;9.17;48.07;100335.38;6144499;28;97517;-66
2021/10/09 05:20:12;;;;;;;;;18.40;16.60;;;;;9.23;48.02;100340.06;6135513;28;96654;-66
2021/10/09 05:23:16;;;;;;;;;21.60;19.00;;;;;9.27;47.97;100339.53;6130215;28;97294;-68
2021/10/09 05:26:24;;;;;;;;;21.25;19.00;;;;;9.29;48.15;100337.47;6147928;28;97625;-65
2021/10/09 05:29:30;;;;;;;;;23.80;21.00;;;;;9.44;47.85;100345.63;6164216;28;97480;-67
2021/10/09 05:32:36;;;;;;;;;25.40;22.40;;;;;9.54;47.71;100338.13;6163394;28;97496;-68
2021/10/09 05:35:40;;;;;;;;;20.00;18.60;;;;;9.56;47.58;100349.56;6160813;28;97262;-68
2021/10/09 05:38:44;;;;;;;;;24.75;20.75;;;;;9.58;47.65;100340.28;6164356;28;96776;-65
2021/10/09 05:41:48;;;;;;;;;21.75;19.00;;;;;9.71;47.39;100344.25;6149307;28;96643;-66
2021/10/09 05:44:53;;;;;;;;;21.40;20.40;;;;;9.73;47.18;100345.72;6147339;28;97534;-66
2021/10/09 05:47:57;;;;;;;;;19.60;18.00;;;;;9.75;47.33;100345.56;6146902;28;96608;-67
2021/10/09 05:51:04;;;;;;;;;21.75;19.50;;;;;9.87;46.85;100350.31;6149110;28;97025;-68
2021/10/09 05:54:20;;;;;;;;;23.00;21.40;;;;;10.02;46.92;100341.47;6147786;28;97271;-65
2021/10/09 05:57:30;;;;;;;;;22.00;19.00;;;;;10.28;46.09;100356.22;6145379;28;98057;-68
2021/10/09 06:00:57;;;;;;;;;18.00;17.00;;;;;10.33;45.87;100348.41;6162902;28;96711;-65
2021/10/09 06:38:13;;;;;;;;;24.33;21.50;;;;;15.98;34.26;100387.00;6162263;28;97449;-69
2021/10/09 06:44:55;;;;;;;;;25.00;21.40;;;;;17.63;31.08;100394.34;6125468;28;97879;-68
2021/10/09 06:48:10;;;;;;;;;25.00;22.00;;;;;18.56;29.77;100392.66;6143538;28;100175;-68
2021/10/09 07:01:25;;;;;;;;;19.75;18.75;;;;;24.94;21.78;100402.47;6160955;28;96978;-67
2021/10/09 07:04:28;;;;;;;;;24.40;22.40;;;;;25.73;20.70;100372.06;6151365;28;97348;-65
2021/10/09 07:07:40;;;;;;;;;21.00;19.40;;;;;26.92;19.67;100402.94;6152129;28;96726;-68
2021/10/09 07:10:56;;;;;;;;;24.00;21.20;;;;;27.57;18.73;100411.59;6152700;28;97452;-65
2021/10/09 07:13:59;;;;;;;;;24.00;22.60;;;;;27.97;18.42;100404.66;6163368;28;97411;-66
2021/10/09 07:17:04;;;;;;;;;22.00;21.00;;;;;28.54;17.85;100411.00;6145241;28;97489;-67
2021/10/09 07:20:09;;;;;;;;;23.50;20.50;;;;;29.01;17.68;100421.81;6149090;28;97571;-67
2021/10/09 07:23:17;;;;;;;;;23.00;21.00;;;;;29.23;17.06;100427.50;6160116;28;97358;-65
2021/10/09 07:26:20;;;;;;;;;21.00;20.60;;;;;29.37;16.94;100415.59;6144736;28;96822;-65
2021/10/09 07:29:24;;;;;;;;;24.00;23.00;;;;;29.63;16.56;100422.25;6162761;28;97090;-68
2021/10/09 07:32:28;;;;;;;;;20.60;19.00;;;;;29.76;17.01;100431.72;6144861;28;97196;-65
2021/10/09 07:35:31;;;;;;;;;28.00;23.00;;;;;29.85;16.64;100433.47;6161807;28;97271;-66
2021/10/09 07:38:36;;;;;;;;;24.00;22.00;;;;;30.29;16.07;100429.94;6162493;28;98166;-65
2021/10/09 07:41:39;;;;;;;;;22.20;20.00;;;;;30.23;16.14;100424.81;6161653;28;97186;-64
2021/10/09 07:44:42;;;;;;;;;25.00;21.60;;;;;30.63;15.88;100429.41;6143133;28;96566;-68
2021/10/09 07:47:46;;;;;;;;;22.40;21.00;;;;;30.89;15.83;100429.53;6127467;28;97297;-68
2021/10/09 07:50:49;;;;;;;;;23.00;21.00;;;;;31.02;15.42;100430.63;6160784;28;97129;-65
2021/10/09 07:53:53;;;;;;;;;22.00;20.40;;;;;31.40;15.30;100431.78;6161400;28;97259;-68
2021/10/09 07:56:58;;;;;;;;;25.60;23.60;;;;;31.62;15.02;100436.47;6160111;28;96721;-67
2021/10/09 08:00:02;;;;;;;;;23.00;21.60;;;;;31.47;14.90;100437.72;6147893;28;97829;-64
2021/10/09 08:03:15;;;;;;;;;22.67;19.00;;;;;31.64;15.31;100431.38;6146001;28;97552;-66
2021/10/09 08:06:18;;;;;;;;;22.40;20.60;;;;;31.85;14.92;100435.19;6165480;28;97443;-66
2021/10/09 08:09:25;;;;;;;;;21.00;20.00;;;;;31.98;15.22;100428.66;6161325;28;97080;-70
2021/10/09 08:12:28;;;;;;;;;23.00;21.00;;;;;32.12;14.45;100431.31;6164870;28;97682;-68
2021/10/09 08:15:31;;;;;;;;;23.60;21.00;;;;;31.96;14.39;100421.75;6166025;28;97529;-67
2021/10/09 08:18:35;;;;;;;;;25.25;22.00;;;;;31.98;14.68;100422.25;6148323;28;97587;-68
2021/10/09 08:21:41;;;;;;;;;21.80;20.40;;;;;31.98;14.53;100422.25;6164154;28;96889;-66
2021/10/09 08:24:51;;;;;;;;;23.50;21.50;;;;;31.70;14.72;100425.34;6146087;28;98103;-70
2021/10/09 08:41:24;;;;;;;;;25.00;24.40;;;;;32.15;14.99;100411.13;6170540;28;96783;-68
2021/10/09 08:44:27;;;;;;;;;23.60;21.20;;;;;32.21;14.94;100395.84;6164728;28;98104;-67
2021/10/09 08:47:34;;;;;;;;;20.60;19.60;;;;;32.13;14.52;100399.47;6164641;28;96758;-67
2021/10/09 08:50:37;;;;;;;;;21.60;21.00;;;;;31.76;15.21;100396.16;6163109;28;96504;-69
2021/10/09 08:53:42;;;;;;;;;21.00;20.00;;;;;31.15;14.88;100402.66;6165255;28;97573;-68
2021/10/09 08:56:49;;;;;;;;;20.00;19.00;;;;;30.58;15.25;100373.03;6163541;28;96724;-67
2021/10/09 08:59:57;;;;;;;;;20.50;18.50;;;;;29.57;15.44;100387.34;6147800;28;97438;-70
2021/10/09 09:03:05;;;;;;;;;20.00;20.00;;;;;29.46;16.03;100389.56;6154211;28;97121;-67
2021/10/09 09:06:19;;;;;;;;;22.20;19.20;;;;;29.38;16.42;100395.81;6163009;28;97712;-68
2021/10/09 09:26:52;;;;;;;;;20.00;18.00;;;;;30.02;15.71;100382.75;6151604;28;97039;-69
2021/10/09 09:33:54;;;;;;;;;20.80;19.00;;;;;30.47;16.21;100378.88;6154780;28;97522;-67
2021/10/09 09:37:17;;;;;;;;;20.00;18.00;;;;;30.64;14.81;100380.94;6145452;28;97697;-67
2021/10/09 09:40:25;;;;;;;;;18.40;16.20;;;;;30.82;15.52;100373.50;6164307;28;97133;-69
2021/10/09 09:43:39;;;;;;;;;16.20;15.80;;;;;31.17;15.77;100382.84;6160802;28;98323;-70
2021/10/09 09:47:01;;;;;;;;;18.25;17.00;;;;;31.31;14.76;100372.41;6165195;28;97571;-67
2021/10/09 09:50:25;;;;;;;;;14.50;14.50;;;;;30.53;14.29;100382.34;6146287;28;97004;-69
2021/10/09 09:53:28;;;;;;;;;17.60;16.40;;;;;30.15;14.52;100372.72;6160232;28;97802;-68
2021/10/09 09:56:32;;;;;;;;;18.80;16.80;;;;;30.20;15.30;100361.47;6164450;28;97361;-68
2021/10/09 09:59:35;;;;;;;;;17.40;15.00;;;;;30.41;14.35;100377.31;6162877;28;97548;-67
2021/10/09 10:02:45;;;;;;;;;18.80;16.80;;;;;30.26;13.77;100365.75;6145242;28;96876;-67
2021/10/09 10:05:48;;;;;;;;;15.33;14.00;;;;;30.20;14.76;100367.84;6162836;28;97291;-70
2021/10/09 10:08:52;;;;;;;;;13.60;12.00;;;;;29.29;14.66;100358.75;6162372;28;96797;-70
2021/10/09 10:11:57;;;;;;;;;15.00;14.00;;;;;29.27;15.65;100358.28;6158447;28;96838;-68
2021/10/09 10:15:01;;;;;;;;;16.75;14.75;;;;;29.42;15.12;100362.72;6163214;28;96720;-68
2021/10/09 10:18:08;;;;;;;;;14.00;12.20;;;;;29.69;15.16;100352.34;6144648;28;97701;-69
2021/10/09 10:21:12;;;;;;;;;13.80;11.80;;;;;29.74;14.45;100350.59;6160719;28;97037;-67
2021/10/09 10:24:43;;;;;;;;;13.00;13.00;;;;;29.54;14.39;100344.34;6160039;28;96782;-65
2021/10/09 10:27:58;;;;;;;;;12.20;11.20;;;;;29.41;15.39;100344.38;6162526;28;97994;-68
2021/10/09 10:31:04;;;;;;;;;14.00;13.00;;;;;29.38;14.94;100342.22;6162306;28;98119;-66
2021/10/09 10:34:26;;;;;;;;;12.00;10.00;;;;;28.75;14.68;100348.47;6128432;28;98477;-65
2021/10/09 10:37:36;;;;;;;;;13.50;11.00;;;;;27.48;16.10;100339.38;6157078;28;96602;-66
2021/10/09 10:40:47;;;;;;;;;14.00;12.00;;;;;27.75;16.08;100330.44;6162229;28;96714;-66
2021/10/09 10:43:53;;;;;;;;;13.50;12.50;;;;;27.55;16.45;100339.88;6141957;28;97678;-66
2021/10/09 10:47:01;;;;;;;;;11.20;10.00;;;;;27.21;16.04;100333.66;6160631;28;97454;-66
2021/10/09 10:51:06;;;;;;;;;12.00;12.00;;;;;26.97;17.54;100338.41;6158303;28;97213;-67
2021/10/09 10:57:36;;;;;;;;;12.40;11.40;;;;;27.37;17.35;100321.25;6157418;28;97242;-66
2021/10/09 11:00:39;;;;;;;;;12.60;10.60;;;;;27.76;15.59;100315.44;6140561;28;97909;-67
2021/10/09 11:03:46;;;;;;;;;10.40;9.00;;;;;27.67;14.85;100328.34;6160815;28;97329;-67
2021/10/09 11:06:51;;;;;;;;;9.00;8.00;;;;;27.16;14.87;100314.34;6160085;28;97546;-66
2021/10/09 11:10:00;;;;;;;;;10.20;9.00;;;;;26.61;15.74;100313.88;6134369;28;99966;-66
2021/10/09 11:13:04;;;;;;;;;9.40;8.00;;;;;26.68;16.12;100316.28;6159970;28;96841;-69
2021/10/09 11:16:08;;;;;;;;;10.00;10.00;;;;;26.89;15.78;100319.66;6160697;28;97456;-66
2021/10/09 11:19:12;;;;;;;;;10.00;10.00;;;;;26.72;15.59;100309.03;6160549;28;98224;-67
2021/10/09 11:22:18;;;;;;;;;12.00;11.00;;;;;26.75;15.08;100305.69;6141512;28;96738;-68
2021/10/09 11:25:27;;;;;;;;;12.50;12.00;;;;;26.44;16.07;100309.91;6160379;28;97493;-67
2021/10/09 11:28:33;;;;;;;;;10.00;9.00;;;;;25.90;15.96;100313.69;6158948;28;97544;-67
2021/10/09 11:31:36;;;;;;;;;12.75;11.25;;;;;26.28;16.50;100304.53;6161022;28;96737;-67
2021/10/09 11:34:57;;;;;;;;;12.00;11.00;;;;;26.13;16.16;100299.09;6160135;28;97482;-67
2021/10/09 11:38:05;;;;;;;;;10.50;9.00;;;;;26.19;16.62;100295.16;6160864;28;97579;-69
2021/10/09 11:41:14;;;;;;;;;11.40;10.00;;;;;26.10;17.17;100296.06;6160219;28;96850;-67
2021/10/09 11:44:22;;;;;;;;;12.00;11.00;;;;;26.51;15.94;100279.94;6160410;28;96553;-67
2021/10/09 11:53:30;;;;;;;;;11.80;9.80;;;;;26.77;17.28;100286.03;6160737;28;97603;-67
2021/10/09 11:54:35;;;;;;;;;13.40;12.00;;;;;27.28;15.66;100288.97;6160470;28;98094;-67
2021/10/09 11:57:39;;;;;;;;;13.80;12.00;;;;;27.11;15.94;100287.56;6160916;28;97608;-67
2021/10/09 12:00:43;;;;;;;;;12.20;10.20;;;;;27.04;17.30;100277.94;6161045;28;97245;-66
2021/10/09 12:03:46;;;;;;;;;12.40;12.00;;;;;27.34;15.22;100282.25;6142956;28;97945;-65
2021/10/09 12:06:53;;;;;;;;;12.00;12.00;;;;;27.62;15.91;100280.47;6159646;28;98430;-68
2021/10/09 12:10:02;;;;;;;;;13.00;12.00;;;;;27.38;15.62;100273.03;6159836;28;96652;-66
2021/10/09 12:13:06;;;;;;;;;11.00;10.80;;;;;27.09;15.67;100272.34;6152793;28;97561;-65
2021/10/09 12:16:09;;;;;;;;;12.40;11.40;;;;;26.47;15.96;100265.88;6160152;28;98151;-64
2021/10/09 12:19:14;;;;;;;;;13.00;12.00;;;;;26.06;16.62;100282.00;6146777;28;97728;-65
2021/10/09 12:22:18;;;;;;;;;12.00;10.00;;;;;25.84;17.28;100276.97;6160334;28;97633;-66
2021/10/09 12:25:26;;;;;;;;;13.25;13.00;;;;;25.32;17.13;100257.41;6160830;28;97386;-67
2021/10/09 12:28:30;;;;;;;;;12.00;11.00;;;;;24.51;17.54;100275.13;6160755;28;97438;-65
2021/10/09 12:31:36;;;;;;;;;11.60;11.60;;;;;24.45;18.87;100267.13;6160820;28;97164;-68
2021/10/09 12:34:39;;;;;;;;;14.00;13.00;;;;;24.40;18.04;100267.97;6159777;28;96530;-67
2021/10/09 12:37:55;;;;;;;;;12.00;11.00;;;;;24.16;17.87;100258.63;6160878;28;96907;-65
2021/10/09 12:40:59;;;;;;;;;9.00;9.00;;;;;23.96;18.72;100275.16;6160662;28;96747;-66
2021/10/09 12:44:03;;;;;;;;;11.00;10.00;;;;;23.56;18.78;100264.97;6160908;28;97158;-66
2021/10/09 12:47:06;;;;;;;;;12.00;11.00;;;;;23.51;19.42;100254.75;6166270;28;96838;-66
2021/10/09 12:50:10;;;;;;;;;13.00;12.00;;;;;23.80;19.09;100257.81;6164597;28;96507;-67
2021/10/09 12:53:13;;;;;;;;;12.00;11.00;;;;;23.79;18.93;100256.19;6163027;28;97101;-66
2021/10/09 12:56:18;;;;;;;;;13.00;12.00;;;;;23.98;18.96;100262.78;6164394;28;97074;-66
2021/10/09 12:59:22;;;;;;;;;15.00;12.00;;;;;24.27;18.35;100257.53;6164511;28;97060;-66
2021/10/09 13:02:25;;;;;;;;;15.00;13.00;;;;;24.38;18.29;100250.09;6163556;28;97551;-66
2021/10/09 13:05:31;;;;;;;;;13.80;13.00;;;;;24.34;18.65;100254.47;6164565;28;97565;-68
2021/10/09 13:08:34;;;;;;;;;13.50;13.50;;;;;24.07;18.42;100252.03;6164428;28;96640;-65
2021/10/09 13:11:46;;;;;;;;;12.00;11.00;;;;;23.75;18.73;100246.78;6146496;28;98337;-67
2021/10/09 13:14:49;;;;;;;;;13.00;12.50;;;;;23.60;19.19;100255.06;6146543;28;97512;-68
2021/10/09 13:17:52;;;;;;;;;14.00;12.00;;;;;23.19;18.90;100241.22;6147249;28;98601;-68
2021/10/09 13:20:57;;;;;;;;;16.00;15.00;;;;;23.13;19.51;100236.78;6152980;28;97281;-66
2021/10/09 13:24:00;;;;;;;;;15.50;13.50;;;;;23.15;19.54;100237.34;6163989;28;97507;-66
2021/10/09 13:27:05;;;;;;;;;14.00;12.60;;;;;22.71;19.36;100205.84;6163937;28;97534;-66
2021/10/09 13:30:09;;;;;;;;;16.00;15.00;;;;;22.73;19.58;100239.41;6157948;28;97003;-66
2021/10/09 13:33:21;;;;;;;;;17.00;15.00;;;;;22.62;19.33;100237.69;6164200;28;97190;-68
2021/10/09 13:36:24;;;;;;;;;16.00;15.00;;;;;22.50;20.05;100237.06;6167286;28;96622;-65
2021/10/09 13:39:31;;;;;;;;;14.00;13.00;;;;;22.31;20.55;100237.53;6145750;28;97737;-68
2021/10/09 13:42:36;;;;;;;;;16.40;16.00;;;;;22.42;20.21;100233.75;6130030;28;97872;-66
2021/10/09 13:45:43;;;;;;;;;14.00;13.00;;;;;22.13;19.49;100234.38;6165217;28;97081;-65
2021/10/09 13:48:47;;;;;;;;;17.80;16.40;;;;;21.55;20.23;100219.66;6163410;28;97453;-66
2021/10/09 13:51:50;;;;;;;;;15.60;14.00;;;;;21.65;20.80;100240.84;6163433;28;97597;-66
2021/10/09 13:54:54;;;;;;;;;17.00;14.00;;;;;21.52;20.40;100237.44;6163871;28;97544;-66
2021/10/09 13:57:58;;;;;;;;;15.00;14.00;;;;;21.22;20.44;100231.66;6144909;28;98003;-66
2021/10/09 14:01:02;;;;;;;;;16.00;14.00;;;;;20.93;20.46;100231.03;6163947;28;97561;-65
2021/10/09 14:04:24;;;;;;;;;14.80;14.00;;;;;21.00;21.42;100230.84;6164533;28;97205;-65
2021/10/09 14:07:28;;;;;;;;;18.00;18.00;;;;;21.00;20.71;100233.59;6163990;28;97437;-65
2021/10/09 14:10:34;;;;;;;;;16.25;15.25;;;;;20.99;21.07;100235.50;6163939;28;98170;-66
2021/10/09 14:13:39;;;;;;;;;17.00;15.00;;;;;20.59;20.78;100232.25;6146452;28;97370;-66
2021/10/09 14:16:42;;;;;;;;;17.00;14.00;;;;;20.25;21.34;100221.38;6163269;28;97217;-66
2021/10/09 14:19:47;;;;;;;;;17.00;13.00;;;;;20.04;21.29;100199.41;6145011;28;99549;-65
2021/10/09 14:22:50;;;;;;;;;14.00;13.40;;;;;20.01;21.84;100230.03;6162829;28;97480;-65
2021/10/09 14:25:53;;;;;;;;;15.40;12.60;;;;;20.03;21.77;100238.84;6164148;28;97142;-67
2021/10/09 14:28:58;;;;;;;;;13.00;12.00;;;;;20.17;21.55;100226.47;6164351;28;97433;-65
2021/10/09 14:32:01;;;;;;;;;15.60;14.60;;;;;20.04;21.26;100226.78;6146132;28;97572;-66
2021/10/09 14:35:08;;;;;;;;;14.80;13.00;;;;;20.06;21.54;100228.22;6163707;28;96615;-65
2021/10/09 14:38:13;;;;;;;;;11.60;11.20;;;;;19.93;21.86;100225.84;6162549;28;96767;-68
2021/10/09 14:41:17;;;;;;;;;15.00;13.00;;;;;20.09;21.88;100221.41;6144517;28;97151;-69
2021/10/09 14:44:22;;;;;;;;;13.60;12.60;;;;;19.84;21.78;100222.66;6162653;28;97506;-66
2021/10/09 14:51:07;;;;;;;;;14.00;11.50;;;;;19.67;22.92;100197.22;6146850;28;96860;-65
2021/10/09 15:18:08;;;;;;;;;12.60;12.00;;;;;19.38;24.28;100229.28;6067488;28;96721;-65
2021/10/09 15:21:11;;;;;;;;;16.00;15.00;;;;;19.29;24.69;100228.03;6092823;28;96751;-68
2021/10/09 15:24:15;;;;;;;;;14.60;14.00;;;;;19.15;24.84;100234.03;6050780;28;100195;-65
2021/10/09 15:27:19;;;;;;;;;15.00;14.00;;;;;19.08;24.76;100223.25;6079362;28;97636;-66
2021/10/09 15:30:22;;;;;;;;;13.80;12.20;;;;;18.97;25.17;100227.69;6065889;28;96944;-68
2021/10/09 15:33:27;;;;;;;;;13.00;11.00;;;;;18.91;25.44;100225.91;6077738;28;97747;-67
2021/10/09 15:36:30;;;;;;;;;16.75;14.25;;;;;18.66;25.92;100200.84;6069497;28;97563;-67
2021/10/09 15:39:34;;;;;;;;;13.00;12.60;;;;;18.74;26.00;100222.31;6148351;28;97549;-69
2021/10/09 15:42:37;;;;;;;;;13.00;12.50;;;;;18.49;26.47;100224.47;6158324;28;97348;-67
2021/10/09 15:45:41;;;;;;;;;15.00;13.00;;;;;18.19;26.90;100222.75;6116294;28;99055;-66
2021/10/09 15:48:45;;;;;;;;;13.80;13.20;;;;;17.97;27.20;100220.88;6116244;28;96820;-66
2021/10/09 15:51:49;;;;;;;;;14.40;12.40;;;;;17.70;27.70;100229.50;6142971;28;96701;-65
2021/10/09 15:54:52;;;;;;;;;13.80;11.40;;;;;17.54;28.00;100229.34;6150125;28;97216;-67
2021/10/09 15:57:56;;;;;;;;;12.00;12.00;;;;;17.40;28.43;100223.25;6146819;28;97551;-65
2021/10/09 16:00:59;;;;;;;;;12.00;10.00;;;;;17.24;28.68;100227.50;6140921;28;98112;-65
2021/10/09 16:04:04;;;;;;;;;13.60;12.60;;;;;17.04;29.17;100226.94;6159459;28;97254;-66
2021/10/09 16:07:07;;;;;;;;;12.00;11.00;;;;;16.98;29.13;100230.59;6140983;28;97462;-67
2021/10/09 16:10:11;;;;;;;;;12.00;11.00;;;;;16.88;29.57;100230.31;6160958;28;96882;-67
2021/10/09 16:13:16;;;;;;;;;11.60;10.60;;;;;16.74;29.54;100231.53;6156741;28;96801;-68
2021/10/09 16:16:19;;;;;;;;;11.00;11.00;;;;;16.62;29.93;100233.34;6143265;28;96864;-66